createdAt,value
2023-07-07T00:00:16.444Z,36.90
2023-07-07T00:01:16.488Z,36.90
2023-07-07T00:02:16.588Z,36.88
2023-07-07T00:03:16.614Z,36.85
2023-07-07T00:04:16.754Z,36.87
2023-07-07T00:05:16.741Z,36.81
2023-07-07T00:06:16.805Z,36.92
2023-07-07T00:07:16.894Z,36.87
2023-07-07T00:08:16.930Z,36.84
2023-07-07T00:09:17.014Z,36.86
2023-07-07T00:10:17.049Z,36.90
2023-07-07T00:11:17.139Z,36.85
2023-07-07T00:12:17.188Z,36.87
2023-07-07T00:13:17.241Z,36.87
2023-07-07T00:14:17.303Z,36.84
2023-07-07T00:15:17.374Z,36.90
2023-07-07T00:16:17.440Z,36.85
2023-07-07T00:17:17.498Z,36.86
2023-07-07T00:18:17.553Z,36.90
2023-07-07T00:19:17.627Z,36.89
2023-07-07T00:20:17.691Z,36.89
2023-07-07T00:21:17.742Z,36.85
2023-07-07T00:22:17.802Z,36.87
2023-07-07T00:23:17.869Z,36.85
2023-07-07T00:24:17.927Z,36.86
2023-07-07T00:25:17.997Z,36.82
2023-07-07T00:26:18.065Z,36.86
2023-07-07T00:27:18.185Z,36.83
2023-07-07T00:28:18.204Z,36.86
2023-07-07T00:29:18.267Z,36.86
2023-07-07T00:30:18.320Z,36.88
2023-07-07T00:31:18.413Z,36.86
2023-07-07T00:32:18.462Z,36.85
2023-07-07T00:33:18.509Z,36.86
2023-07-07T00:34:18.574Z,36.86
2023-07-07T00:35:18.631Z,36.91
2023-07-07T00:36:18.691Z,36.85
2023-07-07T00:37:18.772Z,36.85
2023-07-07T00:38:18.822Z,36.89
2023-07-07T00:39:18.898Z,36.90
2023-07-07T00:40:18.955Z,36.87
2023-07-07T00:41:18.997Z,36.89
2023-07-07T00:42:19.062Z,36.86
2023-07-07T00:43:19.116Z,36.85
2023-07-07T00:44:19.201Z,36.91
2023-07-07T00:45:19.237Z,36.90
2023-07-07T00:46:19.318Z,36.89
2023-07-07T00:47:19.356Z,36.85
2023-07-07T00:48:19.409Z,36.85
2023-07-07T00:49:19.495Z,36.85
2023-07-07T00:50:19.543Z,36.81
2023-07-07T00:51:19.601Z,36.85
2023-07-07T00:52:19.656Z,36.91
2023-07-07T00:53:19.724Z,36.86
2023-07-07T00:54:19.789Z,36.88
2023-07-07T00:55:19.859Z,36.83
2023-07-07T00:56:19.898Z,36.86
2023-07-07T00:57:19.969Z,36.83
2023-07-07T00:58:20.033Z,36.87
2023-07-07T00:59:20.098Z,36.86
2023-07-07T01:00:20.161Z,36.86
2023-07-07T01:01:20.170Z,36.83
2023-07-07T01:02:20.252Z,36.86
2023-07-07T01:03:20.145Z,36.87
2023-07-07T01:04:20.168Z,36.87
2023-07-07T01:05:20.122Z,36.83
2023-07-07T01:06:27.645Z,36.83
2023-07-07T01:07:20.132Z,36.82
2023-07-07T01:08:20.128Z,36.83
2023-07-07T01:09:20.113Z,36.83
2023-07-07T01:10:20.111Z,36.83
2023-07-07T01:11:20.092Z,36.85
2023-07-07T01:12:20.351Z,36.90
2023-07-07T01:13:20.118Z,36.86
2023-07-07T01:14:20.076Z,36.83
2023-07-07T01:15:20.073Z,36.87
2023-07-07T01:16:20.102Z,36.83
2023-07-07T01:17:20.367Z,36.85
2023-07-07T01:18:20.103Z,36.85
2023-07-07T01:19:20.045Z,36.82
2023-07-07T01:20:20.044Z,36.83
2023-07-07T01:21:20.076Z,36.84
2023-07-07T01:22:20.345Z,36.81
2023-07-07T01:23:20.021Z,36.85
2023-07-07T01:24:20.212Z,36.86
2023-07-07T01:25:20.163Z,36.80
2023-07-07T01:26:20.177Z,36.80
2023-07-07T01:27:20.262Z,36.84
2023-07-07T01:28:20.304Z,36.79
2023-07-07T01:29:20.356Z,36.82
2023-07-07T01:30:20.432Z,36.81
2023-07-07T01:31:20.506Z,36.82
2023-07-07T01:32:20.544Z,36.85
2023-07-07T01:33:20.600Z,36.83
2023-07-07T01:34:20.658Z,36.82
2023-07-07T01:35:20.731Z,36.82
2023-07-07T01:36:20.766Z,36.83
2023-07-07T01:37:20.842Z,36.80
2023-07-07T01:38:20.897Z,36.81
2023-07-07T01:39:20.938Z,36.82
2023-07-07T01:40:20.986Z,36.84
2023-07-07T01:41:21.048Z,36.82
2023-07-07T01:42:21.114Z,36.83
2023-07-07T01:43:21.164Z,36.80
2023-07-07T01:44:21.201Z,36.79
2023-07-07T01:45:21.329Z,36.83
2023-07-07T01:46:21.395Z,36.81
2023-07-07T01:47:21.405Z,36.79
2023-07-07T01:48:21.467Z,36.83
2023-07-07T01:49:21.498Z,36.80
2023-07-07T01:50:21.577Z,36.76
2023-07-07T01:51:21.686Z,36.80
2023-07-07T01:52:21.666Z,36.79
2023-07-07T01:53:21.712Z,36.82
2023-07-07T01:54:21.769Z,36.78
2023-07-07T01:55:21.824Z,36.77
2023-07-07T01:56:21.845Z,36.79
2023-07-07T01:57:21.893Z,36.77
2023-07-07T01:58:21.937Z,36.80
2023-07-07T01:59:21.990Z,36.76
2023-07-07T02:00:22.057Z,36.74
2023-07-07T02:01:22.101Z,36.79
2023-07-07T02:02:22.143Z,36.73
2023-07-07T02:03:22.171Z,36.74
2023-07-07T02:04:22.208Z,36.78
2023-07-07T02:05:22.258Z,36.79
2023-07-07T02:06:22.286Z,36.77
2023-07-07T02:07:22.323Z,36.79
2023-07-07T02:08:22.376Z,36.76
2023-07-07T02:09:22.420Z,36.76
2023-07-07T02:10:22.465Z,36.78
2023-07-07T02:11:22.631Z,36.74
2023-07-07T02:12:22.582Z,36.76
2023-07-07T02:13:22.684Z,36.76
2023-07-07T02:14:22.688Z,36.76
2023-07-07T02:15:22.692Z,36.74
2023-07-07T02:16:22.701Z,36.79
2023-07-07T02:17:22.814Z,36.76
2023-07-07T02:18:22.930Z,36.74
2023-07-07T02:19:22.810Z,36.74
2023-07-07T02:20:22.888Z,36.74
2023-07-07T02:21:22.947Z,36.73
2023-07-07T02:22:23.029Z,36.71
2023-07-07T02:23:23.084Z,36.72
2023-07-07T02:24:23.121Z,36.74
2023-07-07T02:25:23.221Z,36.73
2023-07-07T02:26:23.254Z,36.80
2023-07-07T02:27:23.301Z,36.68
2023-07-07T02:28:23.376Z,36.77
2023-07-07T02:29:23.411Z,36.72
2023-07-07T02:30:23.475Z,36.73
2023-07-07T02:31:23.561Z,36.76
2023-07-07T02:32:23.590Z,36.79
2023-07-07T02:33:23.607Z,36.68
2023-07-07T02:34:23.679Z,36.71
2023-07-07T02:35:23.718Z,36.68
2023-07-07T02:36:23.763Z,36.72
2023-07-07T02:37:23.848Z,36.69
2023-07-07T02:38:23.849Z,36.72
2023-07-07T02:39:23.921Z,36.69
2023-07-07T02:40:23.991Z,36.69
2023-07-07T02:41:24.053Z,36.68
2023-07-07T02:42:24.116Z,36.71
2023-07-07T02:43:24.143Z,36.68
2023-07-07T02:44:24.218Z,36.68
2023-07-07T02:45:24.267Z,36.71
2023-07-07T02:46:24.395Z,36.65
2023-07-07T02:47:24.421Z,36.71
2023-07-07T02:48:24.422Z,36.70
2023-07-07T02:49:24.463Z,36.73
2023-07-07T02:50:24.528Z,36.68
2023-07-07T02:51:24.574Z,36.66
2023-07-07T02:52:24.657Z,36.66
2023-07-07T02:53:24.658Z,36.65
2023-07-07T02:54:24.670Z,36.64
2023-07-07T02:55:24.695Z,36.69
2023-07-07T02:56:26.439Z,36.69
2023-07-07T02:57:24.747Z,36.65
2023-07-07T02:58:24.703Z,36.66
2023-07-07T02:59:24.709Z,36.63
2023-07-07T03:00:24.694Z,36.61
2023-07-07T03:01:24.756Z,36.64
2023-07-07T03:02:24.711Z,36.62
2023-07-07T03:03:24.713Z,36.62
2023-07-07T03:04:24.671Z,36.65
2023-07-07T03:05:24.658Z,36.65
2023-07-07T03:06:24.651Z,36.61
2023-07-07T03:07:24.677Z,36.60
2023-07-07T03:08:24.641Z,36.61
2023-07-07T03:09:24.650Z,36.58
2023-07-07T03:10:24.613Z,36.60
2023-07-07T03:11:24.621Z,36.63
2023-07-07T03:12:24.616Z,36.60
2023-07-07T03:13:27.212Z,36.57
2023-07-07T03:14:24.601Z,36.58
2023-07-07T03:15:24.591Z,36.55
2023-07-07T03:16:24.618Z,36.54
2023-07-07T03:17:24.640Z,36.61
2023-07-07T03:18:24.575Z,36.58
2023-07-07T03:19:24.562Z,36.54
2023-07-07T03:20:24.569Z,36.57
2023-07-07T03:21:24.560Z,36.56
2023-07-07T03:22:24.578Z,36.61
2023-07-07T03:23:24.542Z,36.55
2023-07-07T03:24:24.538Z,36.57
2023-07-07T03:25:24.553Z,36.57
2023-07-07T03:26:24.570Z,36.54
2023-07-07T03:27:25.316Z,36.55
2023-07-07T03:28:24.532Z,36.57
2023-07-07T03:29:24.523Z,36.53
2023-07-07T03:30:24.518Z,36.55
2023-07-07T03:31:24.584Z,36.52
2023-07-07T03:32:24.531Z,36.56
2023-07-07T03:33:24.479Z,36.54
2023-07-07T03:34:24.484Z,36.54
2023-07-07T03:35:24.489Z,36.53
2023-07-07T03:36:24.460Z,36.51
2023-07-07T03:37:24.485Z,36.54
2023-07-07T03:38:24.450Z,36.54
2023-07-07T03:39:24.449Z,36.53
2023-07-07T03:40:24.430Z,36.49
2023-07-07T03:41:24.444Z,36.52
2023-07-07T03:42:24.464Z,36.53
2023-07-07T03:43:24.440Z,36.52
2023-07-07T03:44:24.412Z,36.53
2023-07-07T03:45:24.420Z,36.49
2023-07-07T03:46:24.441Z,36.47
2023-07-07T03:47:24.420Z,36.51
2023-07-07T03:48:24.394Z,36.51
2023-07-07T03:49:24.374Z,36.50
2023-07-07T03:50:24.368Z,36.54
2023-07-07T03:51:24.380Z,36.50
2023-07-07T03:52:24.347Z,36.50
2023-07-07T03:53:24.361Z,36.47
2023-07-07T03:54:24.386Z,36.47
2023-07-07T03:55:24.396Z,36.46
2023-07-07T03:56:24.329Z,36.46
2023-07-07T03:57:24.341Z,36.50
2023-07-07T03:58:24.309Z,36.47
2023-07-07T03:59:24.318Z,36.41
2023-07-07T04:00:24.328Z,36.45
2023-07-07T04:01:24.285Z,36.45
2023-07-07T04:02:24.295Z,36.46
2023-07-07T04:03:24.329Z,36.39
2023-07-07T04:04:24.398Z,36.45
2023-07-07T04:05:24.303Z,36.41
2023-07-07T04:06:24.267Z,36.44
2023-07-07T04:07:24.250Z,36.41
2023-07-07T04:08:24.245Z,36.38
2023-07-07T04:09:24.230Z,36.43
2023-07-07T04:10:24.253Z,36.39
2023-07-07T04:11:24.234Z,36.41
2023-07-07T04:12:24.241Z,36.45
2023-07-07T04:13:24.226Z,36.38
2023-07-07T04:14:24.205Z,36.36
2023-07-07T04:15:24.194Z,36.41
2023-07-07T04:16:24.251Z,36.38
2023-07-07T04:17:24.222Z,36.41
2023-07-07T04:18:24.177Z,36.39
2023-07-07T04:19:24.208Z,36.36
2023-07-07T04:20:24.248Z,36.34
2023-07-07T04:21:24.323Z,36.38
2023-07-07T04:22:24.285Z,36.39
2023-07-07T04:23:24.338Z,36.38
2023-07-07T04:24:24.309Z,36.37
2023-07-07T04:25:24.329Z,36.34
2023-07-07T04:26:24.331Z,36.31
2023-07-07T04:27:24.345Z,36.31
2023-07-07T04:28:24.350Z,36.33
2023-07-07T04:29:24.378Z,36.38
2023-07-07T04:30:24.370Z,36.34
2023-07-07T04:31:24.448Z,36.33
2023-07-07T04:32:24.432Z,36.30
2023-07-07T04:33:24.442Z,36.29
2023-07-07T04:34:24.488Z,36.30
2023-07-07T04:35:24.511Z,36.33
2023-07-07T04:36:24.555Z,36.28
2023-07-07T04:37:24.584Z,36.31
2023-07-07T04:38:24.611Z,36.25
2023-07-07T04:39:24.643Z,36.25
2023-07-07T04:40:24.684Z,36.24
2023-07-07T04:41:24.741Z,36.23
2023-07-07T04:42:24.751Z,36.24
2023-07-07T04:43:24.819Z,36.27
2023-07-07T04:44:24.854Z,36.20
2023-07-07T04:45:24.902Z,36.23
2023-07-07T04:46:24.949Z,36.21
2023-07-07T04:47:24.996Z,36.19
2023-07-07T04:48:25.040Z,36.19
2023-07-07T04:49:25.100Z,36.15
2023-07-07T04:50:25.144Z,36.12
2023-07-07T04:51:25.234Z,36.12
2023-07-07T04:52:25.255Z,36.10
2023-07-07T04:53:25.317Z,36.14
2023-07-07T04:54:25.382Z,36.13
2023-07-07T04:55:25.470Z,36.06
2023-07-07T04:56:25.508Z,36.10
2023-07-07T04:57:25.555Z,36.05
2023-07-07T04:58:25.617Z,36.02
2023-07-07T04:59:25.670Z,36.03
2023-07-07T05:00:25.751Z,35.95
2023-07-07T05:01:25.873Z,35.98
2023-07-07T05:02:25.938Z,35.94
2023-07-07T05:03:25.931Z,35.91
2023-07-07T05:04:25.988Z,35.83
2023-07-07T05:05:26.056Z,35.82
2023-07-07T05:06:26.091Z,35.79
2023-07-07T05:07:26.203Z,35.80
2023-07-07T05:08:26.214Z,35.76
2023-07-07T05:09:26.259Z,35.66
2023-07-07T05:10:26.309Z,35.68
2023-07-07T05:11:26.363Z,35.64
2023-07-07T05:12:26.458Z,35.60
2023-07-07T05:13:26.534Z,35.56
2023-07-07T05:14:26.584Z,35.53
2023-07-07T05:15:26.566Z,35.51
2023-07-07T05:16:26.652Z,35.46
2023-07-07T05:17:26.694Z,35.48
2023-07-07T05:18:26.709Z,35.44
2023-07-07T05:19:26.756Z,35.40
2023-07-07T05:20:26.802Z,35.38
2023-07-07T05:21:26.849Z,35.38
2023-07-07T05:22:26.963Z,35.30
2023-07-07T05:23:26.966Z,35.28
2023-07-07T05:24:26.961Z,35.29
2023-07-07T05:25:27.024Z,35.25
2023-07-07T05:26:27.027Z,35.15
2023-07-07T05:27:27.077Z,35.23
2023-07-07T05:28:27.170Z,34.70
2023-07-07T05:29:27.236Z,34.07
2023-07-07T05:30:27.303Z,33.94
2023-07-07T05:31:27.326Z,33.88
2023-07-07T05:32:27.413Z,33.75
2023-07-07T05:33:27.463Z,34.20
2023-07-07T05:34:27.477Z,34.36
2023-07-07T05:35:27.605Z,34.49
2023-07-07T05:36:27.618Z,34.61
2023-07-07T05:37:28.009Z,35.65
2023-07-07T05:38:27.732Z,35.45
2023-07-07T05:39:27.859Z,35.08
2023-07-07T05:40:27.897Z,35.11
2023-07-07T05:41:27.916Z,34.97
2023-07-07T05:42:27.990Z,34.93
2023-07-07T05:43:27.968Z,35.01
2023-07-07T05:44:27.995Z,35.05
2023-07-07T05:45:27.987Z,35.06
2023-07-07T05:46:28.106Z,35.55
2023-07-07T05:47:28.074Z,35.55
2023-07-07T05:48:28.069Z,35.94
2023-07-07T05:49:28.046Z,35.62
2023-07-07T05:50:28.053Z,35.51
2023-07-07T05:51:28.079Z,35.51
2023-07-07T05:52:28.114Z,35.44
2023-07-07T05:53:28.080Z,35.45
2023-07-07T05:54:28.081Z,35.31
2023-07-07T05:55:28.070Z,35.24
2023-07-07T05:56:28.127Z,35.28
2023-07-07T05:57:28.513Z,35.35
2023-07-07T05:58:28.075Z,35.36
2023-07-07T05:59:28.066Z,35.39
2023-07-07T06:00:28.091Z,35.30
2023-07-07T06:01:28.174Z,35.29
2023-07-07T06:02:28.507Z,35.28
2023-07-07T06:03:28.148Z,35.27
2023-07-07T06:04:28.113Z,35.18
2023-07-07T06:05:28.127Z,35.20
2023-07-07T06:06:28.165Z,35.17
2023-07-07T06:07:28.167Z,35.18
2023-07-07T06:08:28.171Z,35.23
2023-07-07T06:09:28.188Z,35.27
2023-07-07T06:10:28.243Z,35.26
2023-07-07T06:11:28.225Z,35.27
2023-07-07T06:12:30.981Z,35.32
2023-07-07T06:13:28.247Z,35.34
2023-07-07T06:14:28.218Z,35.33
2023-07-07T06:15:28.234Z,35.25
2023-07-07T06:16:28.228Z,35.33
2023-07-07T06:17:28.530Z,35.37
2023-07-07T06:18:28.176Z,35.33
2023-07-07T06:19:28.187Z,35.34
2023-07-07T06:20:28.223Z,35.36
2023-07-07T06:21:28.184Z,35.42
2023-07-07T06:22:28.195Z,35.38
2023-07-07T06:23:28.147Z,35.42
2023-07-07T06:24:28.162Z,35.43
2023-07-07T06:25:28.149Z,35.49
2023-07-07T06:26:28.184Z,35.47
2023-07-07T06:27:28.128Z,35.49
2023-07-07T06:28:28.147Z,35.47
2023-07-07T06:29:28.115Z,35.47
2023-07-07T06:30:28.200Z,35.44
2023-07-07T06:31:28.131Z,35.43
2023-07-07T06:32:28.527Z,35.45
2023-07-07T06:33:28.106Z,35.44
2023-07-07T06:34:28.094Z,35.43
2023-07-07T06:35:28.091Z,35.44
2023-07-07T06:36:28.068Z,35.40
2023-07-07T06:37:28.064Z,35.37
2023-07-07T06:38:28.049Z,35.40
2023-07-07T06:39:28.100Z,35.40
2023-07-07T06:40:28.050Z,35.39
2023-07-07T06:41:28.055Z,35.44
2023-07-07T06:42:28.086Z,35.44
2023-07-07T06:43:28.035Z,35.46
2023-07-07T06:44:28.022Z,35.46
2023-07-07T06:45:28.022Z,35.54
2023-07-07T06:46:28.033Z,35.64
2023-07-07T06:47:28.089Z,35.74
2023-07-07T06:48:27.992Z,36.44
2023-07-07T06:49:27.993Z,36.49
2023-07-07T06:50:27.991Z,36.75
2023-07-07T06:51:27.980Z,37.43
2023-07-07T06:52:27.971Z,37.12
2023-07-07T06:53:27.981Z,37.33
2023-07-07T06:54:27.965Z,36.86
2023-07-07T06:55:27.956Z,36.48
2023-07-07T06:56:27.938Z,36.58
2023-07-07T06:57:27.949Z,36.79
2023-07-07T06:58:27.985Z,36.89
2023-07-07T06:59:27.958Z,37.20
2023-07-07T07:00:27.916Z,36.67
2023-07-07T07:01:27.946Z,36.62
2023-07-07T07:02:28.002Z,36.54
2023-07-07T07:03:27.924Z,36.82
2023-07-07T07:04:27.905Z,36.74
2023-07-07T07:05:27.908Z,36.61
2023-07-07T07:06:27.882Z,36.94
2023-07-07T07:07:27.902Z,36.43
2023-07-07T07:08:27.884Z,36.29
2023-07-07T07:09:27.926Z,36.19
2023-07-07T07:10:27.926Z,36.30
2023-07-07T07:11:27.965Z,37.09
2023-07-07T07:12:28.039Z,37.05
2023-07-07T07:13:28.090Z,36.16
2023-07-07T07:14:28.132Z,36.63
2023-07-07T07:15:28.193Z,36.68
2023-07-07T07:16:28.252Z,36.50
2023-07-07T07:17:28.385Z,36.88
2023-07-07T07:18:28.323Z,36.77
2023-07-07T07:19:28.401Z,36.76
2023-07-07T07:20:28.423Z,36.74
2023-07-07T07:21:28.476Z,36.72
2023-07-07T07:22:28.570Z,36.53
2023-07-07T07:23:28.498Z,36.32
2023-07-07T07:24:28.503Z,36.19
2023-07-07T07:25:28.504Z,36.06
2023-07-07T07:26:28.571Z,35.92
2023-07-07T07:27:28.549Z,35.84
2023-07-07T07:28:28.631Z,35.73
2023-07-07T07:29:28.674Z,35.55
2023-07-07T07:30:28.733Z,35.48
2023-07-07T07:31:28.770Z,35.46
2023-07-07T07:32:28.837Z,35.29
2023-07-07T07:33:28.818Z,35.24
2023-07-07T07:34:28.852Z,35.18
2023-07-07T07:35:28.910Z,35.05
2023-07-07T07:36:28.978Z,35.05
2023-07-07T07:37:28.962Z,34.92
2023-07-07T07:38:28.956Z,34.88
2023-07-07T07:39:28.963Z,34.78
2023-07-07T07:40:28.970Z,34.79
2023-07-07T07:41:28.979Z,34.72
2023-07-07T07:42:29.092Z,34.63
2023-07-07T07:43:28.988Z,34.61
2023-07-07T07:44:28.991Z,34.53
2023-07-07T07:45:28.982Z,34.48
2023-07-07T07:46:28.978Z,34.43
2023-07-07T07:47:29.225Z,34.41
2023-07-07T07:48:29.045Z,34.33
2023-07-07T07:49:28.986Z,34.24
2023-07-07T07:50:28.986Z,34.23
2023-07-07T07:51:36.405Z,34.22
2023-07-07T07:52:30.002Z,34.16
2023-07-07T07:53:28.953Z,34.09
2023-07-07T07:54:28.979Z,33.99
2023-07-07T07:55:28.949Z,33.97
2023-07-07T07:56:28.959Z,33.95
2023-07-07T07:57:29.067Z,33.87
2023-07-07T07:58:28.927Z,33.81
2023-07-07T07:59:28.923Z,33.78
2023-07-07T08:00:28.923Z,33.80
2023-07-07T08:01:28.925Z,33.70
2023-07-07T08:02:29.556Z,33.75
2023-07-07T08:03:29.090Z,33.70
2023-07-07T08:04:29.081Z,33.67
2023-07-07T08:05:29.148Z,33.64
2023-07-07T08:06:29.209Z,33.62
2023-07-07T08:07:29.307Z,33.61
2023-07-07T08:08:29.326Z,33.62
2023-07-07T08:09:29.420Z,33.64
2023-07-07T08:10:29.455Z,33.57
2023-07-07T08:11:29.529Z,33.58
2023-07-07T08:12:29.576Z,33.60
2023-07-07T08:13:40.000Z,33.59
2023-07-07T08:14:30.659Z,33.61
2023-07-07T08:15:29.627Z,33.54
2023-07-07T08:16:29.624Z,33.60
2023-07-07T08:17:29.680Z,33.60
2023-07-07T08:18:29.601Z,33.54
2023-07-07T08:19:29.591Z,33.56
2023-07-07T08:20:29.590Z,33.53
2023-07-07T08:21:29.578Z,33.54
2023-07-07T08:22:29.600Z,33.62
2023-07-07T08:23:29.585Z,33.53
2023-07-07T08:24:29.622Z,33.59
2023-07-07T08:25:29.676Z,33.59
2023-07-07T08:26:29.925Z,33.57
2023-07-07T08:28:29.761Z,33.58
2023-07-07T08:29:29.752Z,33.59
2023-07-07T08:30:29.841Z,33.56
2023-07-07T08:31:29.771Z,33.55
2023-07-07T08:32:29.799Z,33.57
2023-07-07T08:33:29.737Z,33.62
2023-07-07T08:34:35.037Z,33.62
2023-07-07T08:35:30.783Z,33.59
2023-07-07T08:36:29.768Z,33.57
2023-07-07T08:37:29.769Z,33.56
2023-07-07T08:38:29.767Z,33.62
2023-07-07T08:39:29.752Z,33.63
2023-07-07T08:40:29.702Z,33.57
2023-07-07T08:41:29.705Z,33.59
2023-07-07T08:42:29.690Z,33.63
2023-07-07T08:43:29.663Z,33.61
2023-07-07T08:44:29.656Z,33.68
2023-07-07T08:45:29.646Z,33.65
2023-07-07T08:46:29.715Z,33.67
2023-07-07T08:47:29.735Z,33.65
2023-07-07T08:48:29.771Z,33.62
2023-07-07T08:49:29.816Z,33.61
2023-07-07T08:50:30.573Z,33.62
2023-07-07T08:51:29.932Z,33.66
2023-07-07T08:52:29.959Z,33.62
2023-07-07T08:53:30.009Z,33.62
2023-07-07T08:55:31.053Z,33.68
2023-07-07T08:56:30.042Z,33.69
2023-07-07T08:57:30.026Z,33.71
2023-07-07T08:58:30.441Z,33.69
2023-07-07T08:59:30.030Z,33.71
2023-07-07T09:00:30.007Z,33.69
2023-07-07T09:01:30.001Z,33.72
2023-07-07T09:02:30.064Z,33.76
2023-07-07T09:03:30.039Z,33.72
2023-07-07T09:04:30.046Z,33.75
2023-07-07T09:05:30.022Z,33.81
2023-07-07T09:06:29.986Z,33.79
2023-07-07T09:07:30.010Z,33.81
2023-07-07T09:08:32.860Z,33.82
2023-07-07T09:09:31.040Z,33.87
2023-07-07T09:10:30.037Z,33.86
2023-07-07T09:11:30.049Z,33.85
2023-07-07T09:12:30.028Z,33.86
2023-07-07T09:13:30.033Z,33.90
2023-07-07T09:14:30.013Z,33.90
2023-07-07T09:15:30.038Z,33.86
2023-07-07T09:16:30.059Z,33.89
2023-07-07T09:17:30.076Z,33.91
2023-07-07T09:18:29.983Z,33.87
2023-07-07T09:19:29.974Z,33.89
2023-07-07T09:20:30.006Z,33.94
2023-07-07T09:21:30.051Z,33.97
2023-07-07T09:22:30.099Z,33.97
2023-07-07T09:23:30.170Z,33.96
2023-07-07T09:24:30.225Z,33.97
2023-07-07T09:25:44.489Z,34.00
2023-07-07T09:26:31.248Z,34.01
2023-07-07T09:27:30.246Z,34.00
2023-07-07T09:28:30.249Z,33.99
2023-07-07T09:29:30.229Z,33.97
2023-07-07T09:30:30.215Z,33.96
2023-07-07T09:31:30.246Z,33.99
2023-07-07T09:32:30.220Z,33.97
2023-07-07T09:33:30.210Z,33.97
2023-07-07T09:34:30.225Z,33.93
2023-07-07T09:35:30.193Z,33.94
2023-07-07T09:36:30.236Z,33.96
2023-07-07T09:37:30.273Z,33.93
2023-07-07T09:38:30.331Z,33.89
2023-07-07T09:39:30.392Z,33.89
2023-07-07T09:40:30.446Z,33.86
2023-07-07T09:41:30.492Z,33.84
2023-07-07T09:42:30.545Z,33.89
2023-07-07T09:43:33.599Z,33.87
2023-07-07T09:44:31.609Z,33.92
2023-07-07T09:45:30.584Z,33.89
2023-07-07T09:46:30.720Z,33.87
2023-07-07T09:47:30.580Z,33.89
2023-07-07T09:48:30.564Z,33.83
2023-07-07T09:49:30.556Z,33.86
2023-07-07T09:50:30.579Z,33.86
2023-07-07T09:51:30.544Z,33.86
2023-07-07T09:52:30.532Z,33.93
2023-07-07T09:53:38.354Z,33.87
2023-07-07T09:54:31.519Z,33.93
2023-07-07T09:55:30.506Z,33.87
2023-07-07T09:56:30.538Z,33.90
2023-07-07T09:57:30.498Z,33.89
2023-07-07T09:58:30.522Z,33.91
2023-07-07T09:59:30.486Z,33.91
2023-07-07T10:00:44.540Z,33.91
2023-07-07T10:01:31.495Z,33.92
2023-07-07T10:02:30.519Z,33.87
2023-07-07T10:03:30.468Z,33.87
2023-07-07T10:04:30.529Z,33.91
2023-07-07T10:05:30.461Z,33.87
2023-07-07T10:06:30.443Z,33.94
2023-07-07T10:07:30.434Z,33.89
2023-07-07T10:08:30.448Z,33.89
2023-07-07T10:09:30.428Z,33.91
2023-07-07T10:10:30.446Z,33.94
2023-07-07T10:12:35.200Z,33.96
2023-07-07T10:13:31.518Z,34.05
2023-07-07T10:14:30.481Z,33.96
2023-07-07T10:15:30.451Z,34.02
2023-07-07T10:16:30.498Z,33.98
2023-07-07T10:17:30.494Z,33.93
2023-07-07T10:18:41.353Z,34.00
2023-07-07T10:19:31.430Z,33.96
2023-07-07T10:20:30.416Z,34.02
2023-07-07T10:21:30.407Z,34.02
2023-07-07T10:22:30.394Z,34.03
2023-07-07T10:23:30.399Z,33.99
2023-07-07T10:24:30.386Z,33.97
2023-07-07T10:25:30.383Z,34.02
2023-07-07T10:26:30.378Z,34.02
2023-07-07T10:27:30.378Z,34.02
2023-07-07T10:28:30.393Z,34.03
2023-07-07T10:29:30.454Z,34.06
2023-07-07T10:30:30.527Z,34.00
2023-07-07T10:31:30.613Z,34.06
2023-07-07T10:32:30.705Z,34.04
2023-07-07T10:33:30.705Z,34.03
2023-07-07T10:34:30.760Z,34.00
2023-07-07T10:35:30.826Z,34.06
2023-07-07T10:36:30.920Z,34.10
2023-07-07T10:37:30.937Z,34.09
2023-07-07T10:38:35.330Z,34.03
2023-07-07T10:39:32.030Z,34.01
2023-07-07T10:40:31.006Z,34.03
2023-07-07T10:41:30.996Z,34.05
2023-07-07T10:42:30.998Z,34.09
2023-07-07T10:43:30.976Z,34.10
2023-07-07T10:44:30.972Z,34.03
2023-07-07T10:45:30.958Z,34.01
2023-07-07T10:46:30.964Z,34.04
2023-07-07T10:47:31.002Z,34.00
2023-07-07T10:48:30.997Z,34.07
2023-07-07T10:49:31.025Z,34.09
2023-07-07T10:50:31.105Z,34.04
2023-07-07T10:51:31.159Z,34.04
2023-07-07T10:53:31.207Z,34.01
2023-07-07T10:54:31.332Z,34.03
2023-07-07T10:55:31.210Z,33.98
2023-07-07T10:56:31.194Z,33.97
2023-07-07T10:57:31.178Z,33.97
2023-07-07T10:58:31.201Z,34.01
2023-07-07T10:59:31.162Z,34.02
2023-07-07T11:00:33.381Z,34.04
2023-07-07T11:01:31.218Z,33.98
2023-07-07T11:02:31.166Z,34.04
2023-07-07T11:03:31.294Z,34.02
2023-07-07T11:04:31.150Z,33.95
2023-07-07T11:05:31.127Z,34.07
2023-07-07T11:06:31.953Z,33.97
2023-07-07T11:07:31.114Z,34.01
2023-07-07T11:08:31.114Z,33.98
2023-07-07T11:09:31.107Z,33.98
2023-07-07T11:10:32.118Z,33.97
2023-07-07T11:11:31.086Z,33.91
2023-07-07T11:12:33.069Z,33.91
2023-07-07T11:13:31.104Z,33.94
2023-07-07T11:14:31.066Z,33.94
2023-07-07T11:15:31.079Z,33.95
2023-07-07T11:16:31.083Z,33.98
2023-07-07T11:17:31.081Z,33.99
2023-07-07T11:18:31.053Z,34.01
2023-07-07T11:19:31.044Z,33.98
2023-07-07T11:20:31.037Z,33.99
2023-07-07T11:21:31.025Z,33.95
2023-07-07T11:22:31.015Z,33.93
2023-07-07T11:23:31.035Z,33.91
2023-07-07T11:24:55.072Z,33.89
2023-07-07T11:25:32.092Z,33.86
2023-07-07T11:26:30.978Z,33.88
2023-07-07T11:27:31.038Z,33.85
2023-07-07T11:28:32.836Z,33.83
2023-07-07T11:29:31.001Z,33.83
2023-07-07T11:30:30.980Z,33.86
2023-07-07T11:31:31.005Z,33.87
2023-07-07T11:32:30.961Z,33.83
2023-07-07T11:33:30.968Z,33.79
2023-07-07T11:34:33.005Z,33.76
2023-07-07T11:35:30.931Z,33.77
2023-07-07T11:36:30.941Z,33.76
2023-07-07T11:37:30.921Z,33.80
2023-07-07T11:38:30.965Z,33.91
2023-07-07T11:39:30.919Z,33.79
2023-07-07T11:40:32.739Z,33.75
2023-07-07T11:41:31.112Z,33.80
2023-07-07T11:42:31.150Z,33.85
2023-07-07T11:43:31.231Z,33.80
2023-07-07T11:44:31.240Z,33.79
2023-07-07T11:45:31.310Z,33.82
2023-07-07T11:46:33.984Z,33.83
2023-07-07T11:47:31.389Z,33.83
2023-07-07T11:48:31.383Z,33.82
2023-07-07T11:49:31.348Z,33.86
2023-07-07T11:50:31.331Z,33.87
2023-07-07T11:51:31.323Z,33.86
2023-07-07T11:52:33.978Z,33.89
2023-07-07T11:53:31.322Z,33.88
2023-07-07T11:54:31.307Z,33.87
2023-07-07T11:55:31.302Z,33.83
2023-07-07T11:56:31.287Z,33.86
2023-07-07T11:57:31.300Z,33.80
2023-07-07T11:58:33.812Z,33.82
2023-07-07T11:59:31.275Z,33.80
2023-07-07T12:00:31.263Z,33.80
2023-07-07T12:01:31.250Z,33.80
2023-07-07T12:02:31.244Z,33.80
2023-07-07T12:03:31.345Z,33.79
2023-07-07T12:04:32.051Z,33.73
2023-07-07T12:05:31.353Z,33.76
2023-07-07T12:06:31.245Z,33.70
2023-07-07T12:07:31.289Z,33.66
2023-07-07T12:08:31.334Z,33.70
2023-07-07T12:09:31.392Z,33.69
2023-07-07T12:10:31.452Z,33.72
2023-07-07T12:11:31.531Z,33.67
2023-07-07T12:12:31.568Z,33.71
2023-07-07T12:13:31.681Z,33.63
2023-07-07T12:14:31.682Z,33.69
2023-07-07T12:15:31.758Z,33.64
2023-07-07T12:16:31.832Z,33.54
2023-07-07T12:17:31.898Z,33.59
2023-07-07T12:18:31.935Z,33.59
2023-07-07T12:19:32.028Z,33.51
2023-07-07T12:20:33.685Z,33.54
2023-07-07T12:21:32.038Z,33.54
2023-07-07T12:22:32.037Z,33.49
2023-07-07T12:23:32.049Z,33.49
2023-07-07T12:24:32.042Z,33.50
2023-07-07T12:25:32.014Z,33.44
2023-07-07T12:26:33.540Z,33.41
2023-07-07T12:27:31.992Z,33.39
2023-07-07T12:28:31.987Z,33.53
2023-07-07T12:29:32.007Z,33.49
2023-07-07T12:30:32.045Z,33.45
2023-07-07T12:31:32.052Z,33.43
2023-07-07T12:32:31.977Z,33.41
2023-07-07T12:33:31.962Z,33.40
2023-07-07T12:34:31.952Z,33.37
2023-07-07T12:35:31.970Z,33.37
2023-07-07T12:36:31.931Z,33.40
2023-07-07T12:37:31.931Z,33.39
2023-07-07T12:38:33.458Z,33.41
2023-07-07T12:39:33.790Z,33.36
2023-07-07T12:40:31.921Z,33.36
2023-07-07T12:41:31.913Z,33.36
2023-07-07T12:42:31.893Z,33.32
2023-07-07T12:43:31.925Z,33.34
2023-07-07T12:44:31.914Z,33.32
2023-07-07T12:45:31.893Z,33.26
2023-07-07T12:46:31.943Z,33.27
2023-07-07T12:47:32.109Z,33.24
2023-07-07T12:48:31.886Z,33.33
2023-07-07T12:49:31.956Z,33.23
2023-07-07T12:50:32.018Z,33.21
2023-07-07T12:51:32.093Z,33.14
2023-07-07T12:52:32.157Z,33.18
2023-07-07T12:53:32.197Z,33.11
2023-07-07T12:54:32.288Z,33.11
2023-07-07T12:55:32.328Z,33.13
2023-07-07T12:56:32.369Z,33.11